Time;durP1;ratioP1;P1;durP2;ratioP2;P2;SDS_P1;SDS_P2;PMS_P1;PMS_P2;Temp;Humidity;BMP_temperature;BMP_pressure;BME280_temperature;BME280_humidity;BME280_pressure;Samples;Min_cycle;Max_cycle;Signal;HPM_P1;HPM_P2
2022/04/29 00:00:00;;;;;;;36.60;26.85;;;;;;;7.71;100.00;100055.22;2066887;28;20196;-75
2022/04/29 00:01:04;;;;;;;43.70;27.33;;;;;;;7.71;100.00;100052.56;2066087;28;20246;-75
2022/04/29 00:02:06;;;;;;;33.78;26.27;;;;;;;7.70;100.00;100054.44;2066324;28;20193;-75
2022/04/29 00:03:08;;;;;;;35.80;27.33;;;;;;;7.67;100.00;100052.28;2066748;28;20238;-75
2022/04/29 00:04:09;;;;;;;37.20;28.65;;;;;;;7.64;100.00;100052.78;2058050;28;20189;-75
2022/04/29 00:05:13;;;;;;;34.17;26.90;;;;;;;7.59;100.00;100053.53;2058479;28;20198;-75
2022/04/29 00:06:15;;;;;;;42.80;28.20;;;;;;;7.62;100.00;100052.22;2065590;28;20304;-75
2022/04/29 00:07:16;;;;;;;41.72;27.35;;;;;;;7.61;100.00;100056.75;2057999;28;20222;-75
2022/04/29 00:08:20;;;;;;;35.93;27.73;;;;;;;7.59;100.00;100047.44;2058178;28;20201;-75
2022/04/29 00:09:22;;;;;;;38.30;28.58;;;;;;;7.56;100.00;100047.94;2058409;28;20257;-74
2022/04/29 00:10:23;;;;;;;43.53;28.65;;;;;;;7.52;100.00;100050.28;2066021;28;20608;-75
2022/04/29 00:11:27;;;;;;;45.80;27.60;;;;;;;7.47;100.00;100042.28;2066142;28;20200;-75
2022/04/29 00:12:31;;;;;;;40.03;27.95;;;;;;;7.45;100.00;100051.53;2066799;28;20654;-75
2022/04/29 00:13:33;;;;;;;40.95;28.17;;;;;;;7.48;100.00;100051.06;2066812;28;20193;-75
2022/04/29 00:14:34;;;;;;;38.15;28.25;;;;;;;7.46;100.00;100047.81;2057980;28;20650;-75
2022/04/29 00:15:36;;;;;;;42.30;30.20;;;;;;;7.44;100.00;100047.28;2058180;28;20225;-74
2022/04/29 00:16:38;;;;;;;44.97;28.30;;;;;;;7.42;100.00;100041.44;2066673;28;20663;-75
2022/04/29 00:17:41;;;;;;;42.20;29.13;;;;;;;7.35;100.00;100046.94;2066860;28;20639;-75
2022/04/29 00:18:43;;;;;;;40.20;28.50;;;;;;;7.36;100.00;100051.19;2066694;28;20200;-75
2022/04/29 00:19:45;;;;;;;47.25;29.42;;;;;;;7.32;100.00;100044.78;2066650;28;20246;-75
2022/04/29 00:20:50;;;;;;;41.55;28.38;;;;;;;7.31;100.00;100054.59;2065639;28;20196;-75
2022/04/29 00:21:52;;;;;;;44.03;28.83;;;;;;;7.26;100.00;100049.22;2057465;28;20232;-75
2022/04/29 00:22:53;;;;;;;40.67;28.63;;;;;;;7.24;100.00;100043.38;2057959;28;20236;-75
2022/04/29 00:23:54;;;;;;;43.80;29.15;;;;;;;7.23;100.00;100051.59;2058185;28;20194;-75
2022/04/29 00:24:56;;;;;;;40.20;28.67;;;;;;;7.20;100.00;100052.88;2058002;28;20220;-75
2022/04/29 00:25:57;;;;;;;46.13;29.55;;;;;;;7.17;100.00;100050.72;2058046;28;20722;-75
2022/04/29 00:26:59;;;;;;;40.77;28.57;;;;;;;7.13;100.00;100052.28;2066724;28;20551;-75
2022/04/29 00:28:03;;;;;;;41.67;29.58;;;;;;;7.13;100.00;100049.63;2066538;28;20664;-75
2022/04/29 00:29:06;;;;;;;41.00;28.80;;;;;;;7.09;100.00;100048.50;2057443;28;20722;-75
2022/04/29 00:30:10;;;;;;;39.35;28.15;;;;;;;7.06;100.00;100046.38;2058408;28;20186;-75
2022/04/29 00:31:12;;;;;;;34.95;27.98;;;;;;;7.03;100.00;100044.19;2066546;28;20534;-75
2022/04/29 00:32:16;;;;;;;37.60;28.00;;;;;;;7.04;100.00;100048.47;2058514;28;20186;-75
2022/04/29 00:33:17;;;;;;;40.00;28.35;;;;;;;7.03;100.00;100050.28;2058805;28;20197;-75
2022/04/29 00:34:20;;;;;;;41.97;27.87;;;;;;;7.02;100.00;100053.19;2058624;28;20192;-75
2022/04/29 00:35:23;;;;;;;38.05;27.35;;;;;;;7.00;100.00;100042.84;2057995;28;20202;-75
2022/04/29 00:36:24;;;;;;;37.05;28.33;;;;;;;6.98;100.00;100044.94;2049572;28;20566;-75
2022/04/29 00:37:27;;;;;;;42.27;27.97;;;;;;;6.96;100.00;100039.09;2057841;28;20371;-75
2022/04/29 00:38:28;;;;;;;40.25;28.58;;;;;;;6.96;100.00;100043.59;2065572;28;20216;-75
2022/04/29 00:39:30;;;;;;;41.08;28.52;;;;;;;6.96;100.00;100049.69;2065901;28;20687;-75
2022/04/29 00:40:34;;;;;;;41.75;29.15;;;;;;;6.96;100.00;100052.34;2058690;28;20194;-75
2022/04/29 00:41:37;;;;;;;41.25;28.80;;;;;;;6.97;100.00;100046.00;2057785;28;20787;-75
2022/04/29 00:42:40;;;;;;;34.83;28.33;;;;;;;7.01;100.00;100052.41;2057917;28;20190;-75
2022/04/29 00:43:41;;;;;;;39.08;28.02;;;;;;;7.04;100.00;100053.78;2066019;28;20196;-75
2022/04/29 00:44:44;;;;;;;38.43;28.43;;;;;;;7.02;100.00;100054.00;2057375;28;20289;-75
2022/04/29 00:45:45;;;;;;;38.28;28.65;;;;;;;7.04;100.00;100045.81;2057981;28;20247;-75
2022/04/29 00:46:47;;;;;;;44.67;30.47;;;;;;;7.00;100.00;100047.34;2057872;28;20198;-75
2022/04/29 00:47:51;;;;;;;43.05;28.92;;;;;;;7.04;100.00;100051.13;2057805;28;20202;-75
2022/04/29 00:48:54;;;;;;;37.50;28.33;;;;;;;7.03;100.00;100050.28;2057697;28;20681;-75
2022/04/29 00:49:56;;;;;;;38.53;28.70;;;;;;;7.01;100.00;100051.59;2058043;28;20197;-75
2022/04/29 00:50:58;;;;;;;38.60;28.67;;;;;;;7.01;100.00;100051.59;2057282;28;20640;-74
2022/04/29 00:52:01;;;;;;;44.83;30.27;;;;;;;6.99;100.00;100043.88;2057942;28;20209;-75
2022/04/29 00:53:03;;;;;;;47.33;28.67;;;;;;;6.99;100.00;100045.75;2057768;28;20201;-75
2022/04/29 00:54:07;;;;;;;39.08;27.83;;;;;;;7.00;100.00;100047.34;2057966;28;20635;-75
2022/04/29 00:55:10;;;;;;;41.03;28.50;;;;;;;6.98;100.00;100046.78;2058486;28;20540;-75
2022/04/29 00:56:13;;;;;;;41.58;28.95;;;;;;;6.94;100.00;100043.81;2058424;28;20197;-75
2022/04/29 00:57:27;;;;;;;34.83;27.58;;;;;;;6.92;100.00;100042.47;2058364;28;20252;-74
2022/04/29 00:58:34;;;;;;;46.75;28.67;;;;;;;6.91;100.00;100048.81;2058359;28;20224;-75
2022/04/29 00:59:39;;;;;;;40.40;29.10;;;;;;;6.86;100.00;100044.25;2058452;28;20174;-75
2022/04/29 01:00:41;;;;;;;40.63;29.33;;;;;;;6.86;100.00;100048.75;2058407;28;20244;-75
2022/04/29 01:01:44;;;;;;;38.20;29.10;;;;;;;6.79;100.00;100041.00;2065653;28;20200;-75
2022/04/29 01:02:48;;;;;;;44.55;30.15;;;;;;;6.83;100.00;100049.25;2057721;28;20691;-75
2022/04/29 01:03:52;;;;;;;45.03;30.45;;;;;;;6.79;100.00;100033.06;2057831;28;20213;-75
2022/04/29 01:04:59;;;;;;;44.30;30.17;;;;;;;6.78;100.00;100042.84;2065119;28;20686;-75
2022/04/29 01:06:01;;;;;;;35.33;28.60;;;;;;;6.76;100.00;100038.81;2058020;28;20616;-74
2022/04/29 01:07:03;;;;;;;45.00;31.08;;;;;;;6.71;100.00;100034.28;2058304;28;20225;-75
2022/04/29 01:08:05;;;;;;;41.88;28.75;;;;;;;6.70;100.00;100037.97;2057258;28;20194;-75
2022/04/29 01:09:06;;;;;;;41.60;29.45;;;;;;;6.71;100.00;100041.44;2057569;28;20258;-75
2022/04/29 01:10:10;;;;;;;41.90;30.20;;;;;;;6.72;100.00;100035.88;2057685;28;20294;-75
2022/04/29 01:11:12;;;;;;;37.55;29.63;;;;;;;6.72;100.00;100033.22;2057567;28;20197;-75
2022/04/29 01:12:13;;;;;;;47.55;30.05;;;;;;;6.69;100.00;100033.72;2049643;28;20249;-75
2022/04/29 01:13:15;;;;;;;40.27;29.97;;;;;;;6.71;100.00;100036.94;2049584;28;20195;-75
2022/04/29 01:14:19;;;;;;;40.85;30.20;;;;;;;6.70;100.00;100032.69;2049724;28;20229;-75
2022/04/29 01:15:21;;;;;;;42.97;30.67;;;;;;;6.68;100.00;100028.66;2049847;28;20234;-75
2022/04/29 01:16:22;;;;;;;41.95;30.52;;;;;;;6.66;100.00;100028.91;2049234;28;20289;-75
2022/04/29 01:17:26;;;;;;;45.00;31.45;;;;;;;6.61;100.00;100020.91;2049620;28;20211;-75
2022/04/29 01:18:27;;;;;;;38.63;28.88;;;;;;;6.63;100.00;100026.75;2057459;28;20256;-75
2022/04/29 01:19:31;;;;;;;46.60;30.38;;;;;;;6.63;100.00;100031.25;2057856;28;20248;-75
2022/04/29 01:20:33;;;;;;;44.28;29.70;;;;;;;6.61;100.00;100026.19;2049657;28;20206;-75
2022/04/29 01:21:36;;;;;;;47.70;30.33;;;;;;;6.55;100.00;100024.53;2057259;28;20236;-75
2022/04/29 01:22:39;;;;;;;44.67;30.95;;;;;;;6.55;100.00;100021.06;2065054;28;20224;-75
2022/04/29 01:23:43;;;;;;;44.50;31.52;;;;;;;6.55;100.00;100021.88;2065581;28;20193;-75
2022/04/29 01:24:50;;;;;;;40.45;29.58;;;;;;;6.52;100.00;100027.66;2057788;28;20217;-75
2022/04/29 01:25:53;;;;;;;43.28;30.67;;;;;;;6.52;100.00;100019.72;2050457;28;20253;-75
2022/04/29 01:26:55;;;;;;;42.70;30.67;;;;;;;6.52;100.00;100022.38;2049819;28;20306;-75
2022/04/29 01:27:57;;;;;;;42.30;29.77;;;;;;;6.51;100.00;100026.03;2049463;28;20197;-75
2022/04/29 01:29:02;;;;;;;41.80;29.95;;;;;;;6.50;100.00;100029.75;2049800;28;20225;-75
2022/04/29 01:30:05;;;;;;;41.33;30.50;;;;;;;6.46;100.00;100026.00;2049738;28;20198;-75
2022/04/29 01:31:10;;;;;;;45.88;30.50;;;;;;;6.43;100.00;100031.78;2050019;28;20642;-75
2022/04/29 01:32:12;;;;;;;41.63;31.10;;;;;;;6.41;100.00;100029.34;2049612;28;20803;-75
2022/04/29 01:33:17;;;;;;;40.97;31.20;;;;;;;6.36;100.00;100021.34;2049845;28;20206;-75
2022/04/29 01:34:21;;;;;;;42.47;31.35;;;;;;;6.36;100.00;100028.50;2057578;28;20289;-75
2022/04/29 01:35:23;;;;;;;43.75;30.23;;;;;;;6.32;100.00;100016.78;2065263;28;20674;-75
2022/04/29 01:36:25;;;;;;;41.63;31.67;;;;;;;6.35;100.00;100022.41;2057029;28;20623;-75
2022/04/29 01:37:26;;;;;;;48.85;31.67;;;;;;;6.35;100.00;100021.59;2049185;28;20206;-75
2022/04/29 01:38:29;;;;;;;37.85;29.77;;;;;;;6.33;100.00;100023.69;2049466;28;20201;-75
2022/04/29 01:39:31;;;;;;;41.38;30.80;;;;;;;6.29;100.00;100017.28;2049934;28;20209;-75
2022/04/29 01:40:33;;;;;;;44.27;29.60;;;;;;;6.30;100.00;100018.88;2049423;29;20194;-75
2022/04/29 01:41:41;;;;;;;46.92;30.55;;;;;;;6.28;100.00;100020.97;2050250;28;20200;-75
2022/04/29 01:42:45;;;;;;;44.67;30.83;;;;;;;6.28;100.00;100020.97;2049550;28;20195;-74
2022/04/29 01:43:47;;;;;;;42.50;30.95;;;;;;;6.25;100.00;100014.28;2057355;28;20285;-75
2022/04/29 01:44:49;;;;;;;42.97;31.38;;;;;;;6.22;100.00;100012.94;2057320;28;20621;-74
2022/04/29 01:45:51;;;;;;;45.80;30.92;;;;;;;6.24;100.00;100020.63;2057295;28;20193;-75
2022/04/29 01:47:13;;;;;;;48.55;31.35;;;;;;;6.20;100.00;100020.34;2036048;29;20242;-75
2022/04/29 01:48:39;;;;;;;41.13;30.60;;;;;;;6.19;100.00;100018.75;2057341;28;20264;-74
2022/04/29 01:50:05;;;;;;;43.78;30.17;;;;;;;6.17;100.00;100023.47;2051662;28;20238;-75
2022/04/29 01:51:07;;;;;;;42.33;30.58;;;;;;;6.15;100.00;100020.25;2049850;28;20205;-74
2022/04/29 01:52:10;;;;;;;46.07;32.23;;;;;;;6.14;100.00;100015.19;2057346;28;20190;-75
2022/04/29 01:53:10;;;;;;;43.15;32.25;;;;;;;6.11;100.00;100021.00;2057357;28;20759;-74
2022/04/29 01:54:13;;;;;;;43.43;32.03;;;;;;;6.09;100.00;100015.94;2057260;28;20561;-75
2022/04/29 01:55:15;;;;;;;45.30;32.95;;;;;;;6.04;100.00;100009.75;2049357;28;20309;-75
2022/04/29 01:56:17;;;;;;;43.40;31.50;;;;;;;6.03;100.00;100010.81;2057364;28;20200;-74
2022/04/29 01:57:19;;;;;;;44.33;31.05;;;;;;;5.97;100.00;100007.28;2057211;28;20213;-75
2022/04/29 01:58:21;;;;;;;45.03;31.80;;;;;;;5.98;100.00;100016.00;2057248;28;20284;-74
2022/04/29 01:59:22;;;;;;;46.53;31.13;;;;;;;5.95;100.00;100017.31;2057256;28;20225;-75
2022/04/29 02:00:42;;;;;;;42.35;31.13;;;;;;;5.91;100.00;100017.00;2051544;28;20194;-75
2022/04/29 02:01:42;;;;;;;46.55;31.13;;;;;;;5.91;100.00;100013.56;2057374;28;20193;-74
2022/04/29 02:02:44;;;;;;;42.10;31.30;;;;;;;5.90;100.00;100014.53;2065251;28;20284;-74
2022/04/29 02:03:48;;;;;;;44.40;31.88;;;;;;;5.88;100.00;100016.63;2057604;28;20220;-74
2022/04/29 02:04:52;;;;;;;49.70;32.63;;;;;;;5.86;100.00;100016.09;2057241;28;20213;-74
2022/04/29 02:05:53;;;;;;;43.35;31.95;;;;;;;5.83;100.00;100017.38;2049106;28;20612;-73
2022/04/29 02:06:55;;;;;;;40.37;31.23;;;;;;;5.82;100.00;100021.06;2049275;29;20194;-74
2022/04/29 02:07:57;;;;;;;45.80;33.33;;;;;;;5.80;100.00;100022.34;2057311;28;20460;-74
2022/04/29 02:08:59;;;;;;;50.08;30.65;;;;;;;5.76;100.00;100018.56;2057258;28;20225;-74
2022/04/29 02:10:06;;;;;;;39.72;29.17;;;;;;;5.73;100.00;100021.69;2049387;28;20202;-74
2022/04/29 02:11:09;;;;;;;48.22;30.95;;;;;;;5.75;100.00;100027.56;2050124;28;20646;-74
2022/04/29 02:12:11;;;;;;;47.95;31.13;;;;;;;5.74;100.00;100026.75;2049340;28;20215;-74
2022/04/29 02:13:33;;;;;;;47.42;29.92;;;;;;;5.74;100.00;100016.16;2056132;28;20284;-74
2022/04/29 02:14:50;;;;;;;47.90;32.00;;;;;;;5.79;100.00;100026.03;2057512;28;20207;-74
2022/04/29 02:15:57;;;;;;;42.75;31.55;;;;;;;5.80;100.00;100019.69;2049159;28;20198;-74
2022/04/29 02:16:59;;;;;;;43.60;30.58;;;;;;;5.81;100.00;100026.56;2049410;28;20209;-74
2022/04/29 02:18:01;;;;;;;51.50;32.75;;;;;;;5.81;100.00;100027.38;2056840;28;20304;-74
2022/04/29 02:19:02;;;;;;;46.08;31.23;;;;;;;5.84;100.00;100023.47;2065184;28;20273;-74
2022/04/29 02:20:04;;;;;;;44.50;31.47;;;;;;;5.87;100.00;100025.63;2065199;28;20269;-74
2022/04/29 02:21:07;;;;;;;43.40;31.17;;;;;;;5.85;100.00;100022.41;2056806;28;20205;-74
2022/04/29 02:22:08;;;;;;;43.72;31.25;;;;;;;5.85;100.00;100025.06;2057218;28;20189;-75
2022/04/29 02:23:10;;;;;;;46.42;31.52;;;;;;;5.86;100.00;100018.72;2057290;28;20688;-74
2022/04/29 02:24:14;;;;;;;43.85;30.00;;;;;;;5.86;100.00;100021.38;2057129;28;20206;-74
2022/04/29 02:25:19;;;;;;;44.42;31.45;;;;;;;5.89;100.00;100012.94;2048974;28;20290;-74
2022/04/29 02:26:21;;;;;;;46.60;32.22;;;;;;;5.85;100.00;100019.78;2057259;28;20197;-74
2022/04/29 02:27:22;;;;;;;45.88;31.55;;;;;;;5.86;100.00;100021.38;2057123;28;20248;-74
2022/04/29 02:28:24;;;;;;;50.00;32.37;;;;;;;5.85;100.00;100020.56;2049161;29;20257;-74
2022/04/29 02:29:27;;;;;;;47.85;32.90;;;;;;;5.84;100.00;100016.31;2049181;28;20198;-74
2022/04/29 02:30:30;;;;;;;42.97;31.00;;;;;;;5.84;100.00;100010.22;2057121;28;20212;-74
2022/04/29 02:31:33;;;;;;;45.75;31.45;;;;;;;5.83;100.00;100009.44;2057123;28;20287;-74
2022/04/29 02:32:35;;;;;;;48.30;32.15;;;;;;;5.80;100.00;100011.75;2057174;28;20656;-74
2022/04/29 02:33:39;;;;;;;47.85;31.63;;;;;;;5.82;100.00;100014.94;2049559;28;20260;-74
2022/04/29 02:34:41;;;;;;;46.00;31.67;;;;;;;5.76;100.00;100011.44;2048713;29;20700;-74
2022/04/29 02:35:43;;;;;;;49.05;32.65;;;;;;;5.78;100.00;100016.47;2049320;28;20589;-74
2022/04/29 02:36:47;;;;;;;47.73;32.63;;;;;;;5.76;100.00;100015.94;2048809;28;20316;-74
2022/04/29 02:37:51;;;;;;;45.95;32.67;;;;;;;5.75;100.00;100019.63;2048990;28;20233;-74
2022/04/29 02:38:52;;;;;;;42.80;32.33;;;;;;;5.72;100.00;100015.59;2049487;28;20248;-74
2022/04/29 02:39:54;;;;;;;50.30;33.20;;;;;;;5.67;100.00;100013.66;2057273;28;20276;-74
2022/04/29 02:40:57;;;;;;;46.08;32.25;;;;;;;5.64;100.00;100011.47;2057087;28;20201;-74
2022/04/29 02:41:58;;;;;;;48.28;31.27;;;;;;;5.62;100.00;100003.00;2049199;28;20209;-74
2022/04/29 02:43:00;;;;;;;48.33;32.63;;;;;;;5.64;100.00;100013.34;2049103;28;20222;-74
2022/04/29 02:44:01;;;;;;;44.90;32.08;;;;;;;5.60;100.00;100012.22;2057222;28;20424;-74
2022/04/29 02:45:04;;;;;;;52.33;34.45;;;;;;;5.56;100.00;100011.91;2057047;28;20248;-74
2022/04/29 02:46:20;;;;;;;52.67;34.28;;;;;;;5.58;100.00;100009.81;2059010;28;20193;-75
2022/04/29 02:47:22;;;;;;;51.50;33.97;;;;;;;5.55;100.00;100018.22;2056981;28;20715;-74
2022/04/29 02:48:23;;;;;;;48.45;34.10;;;;;;;5.52;100.00;100013.41;2049191;28;20257;-74
2022/04/29 02:49:25;;;;;;;49.40;33.23;;;;;;;5.52;100.00;100017.91;2049053;29;20246;-74
2022/04/29 02:50:27;;;;;;;47.88;32.97;;;;;;;5.51;100.00;100014.47;2049051;28;20206;-74
2022/04/29 02:51:34;;;;;;;49.17;32.90;;;;;;;5.50;100.00;100015.50;2057575;28;20248;-74
2022/04/29 02:52:39;;;;;;;50.47;33.42;;;;;;;5.48;100.00;100012.28;2065226;28;20261;-74
2022/04/29 02:53:40;;;;;;;49.92;33.85;;;;;;;5.49;100.00;100019.19;2056962;28;20330;-74
2022/04/29 02:54:43;;;;;;;49.35;33.17;;;;;;;5.48;100.00;100017.59;2057138;28;20194;-74
2022/04/29 02:55:54;;;;;;;51.92;34.72;;;;;;;5.47;100.00;100018.59;2057044;28;20245;-74
2022/04/29 02:57:08;;;;;;;57.35;34.42;;;;;;;5.46;100.00;100011.72;2050711;28;20189;-74
2022/04/29 02:58:22;;;;;;;50.10;34.70;;;;;;;5.49;100.00;100008.59;2050405;28;20198;-75
2022/04/29 02:59:24;;;;;;;48.88;32.95;;;;;;;5.46;100.00;100017.00;2049587;28;20210;-75
2022/04/29 03:00:27;;;;;;;52.65;33.53;;;;;;;5.47;100.00;100021.25;2057491;28;20193;-75
2022/04/29 03:01:30;;;;;;;51.55;35.42;;;;;;;5.45;100.00;100018.03;2056986;28;20201;-75
2022/04/29 03:02:33;;;;;;;48.88;33.92;;;;;;;5.44;100.00;100011.16;2049098;29;20657;-75
2022/04/29 03:03:38;;;;;;;52.75;34.53;;;;;;;5.43;100.00;100014.84;2057681;28;20194;-75
2022/04/29 03:04:39;;;;;;;50.30;34.65;;;;;;;5.40;100.00;100020.63;2056966;28;20288;-75
2022/04/29 03:05:44;;;;;;;50.80;33.05;;;;;;;5.38;100.00;100023.47;2049181;28;20592;-75
2022/04/29 03:06:46;;;;;;;49.83;33.78;;;;;;;5.34;100.00;100024.22;2048997;28;20227;-75
2022/04/29 03:07:49;;;;;;;48.55;33.58;;;;;;;5.33;100.00;100022.59;2057207;28;20190;-75
2022/04/29 03:08:52;;;;;;;49.42;34.83;;;;;;;5.31;100.00;100019.41;2056884;28;20257;-75
2022/04/29 03:09:53;;;;;;;49.22;32.22;;;;;;;5.28;100.00;100017.22;2057012;28;20194;-75
2022/04/29 03:10:55;;;;;;;49.15;33.20;;;;;;;5.28;100.00;100018.00;2056983;28;20197;-75
2022/04/29 03:11:57;;;;;;;54.60;35.05;;;;;;;5.28;100.00;100023.31;2057092;28;20224;-75
2022/04/29 03:13:06;;;;;;;51.75;33.08;;;;;;;5.30;100.00;100023.06;2057043;28;20292;-75
2022/04/29 03:14:17;;;;;;;47.17;32.35;;;;;;;5.36;100.00;100025.56;2057420;28;20170;-75
2022/04/29 03:15:25;;;;;;;54.17;33.97;;;;;;;5.38;100.00;100027.97;2056799;28;20198;-75
2022/04/29 03:16:30;;;;;;;49.42;33.55;;;;;;;5.38;100.00;100020.03;2050013;28;20191;-75
2022/04/29 03:18:53;;;;;;;51.35;34.17;;;;;;;5.41;100.00;100027.53;2051637;28;20197;-76
2022/04/29 03:19:53;;;;;;;55.42;34.28;;;;;;;5.42;100.00;100026.47;2057056;28;20198;-76
2022/04/29 03:20:58;;;;;;;48.57;34.03;;;;;;;5.42;100.00;100033.59;2064664;28;20193;-74
2022/04/29 03:22:00;;;;;;;51.90;36.60;;;;;;;5.43;100.00;100027.28;2056955;28;20197;-75
2022/04/29 03:23:03;;;;;;;49.90;35.30;;;;;;;5.46;100.00;100032.09;2056906;28;20284;-75
2022/04/29 03:24:07;;;;;;;48.72;34.63;;;;;;;5.45;100.00;100027.84;2064706;28;20199;-75
2022/04/29 03:25:08;;;;;;;52.90;35.75;;;;;;;5.47;100.00;100031.03;2049112;28;20351;-75
2022/04/29 03:26:10;;;;;;;49.03;34.10;;;;;;;5.49;100.00;100032.44;2049058;28;20195;-75
2022/04/29 03:27:11;;;;;;;50.88;34.65;;;;;;;5.46;100.00;100024.94;2048986;28;20663;-75
2022/04/29 03:28:15;;;;;;;49.37;34.60;;;;;;;5.49;100.00;100027.13;2050234;29;20202;-75
2022/04/29 03:29:18;;;;;;;54.80;36.05;;;;;;;5.47;100.00;100029.19;2050663;28;20225;-75
2022/04/29 03:30:20;;;;;;;49.28;34.70;;;;;;;5.50;100.00;100028.72;2058268;28;20209;-75
2022/04/29 03:31:22;;;;;;;55.05;35.67;;;;;;;5.52;100.00;100028.50;2058351;28;20232;-75
2022/04/29 03:32:49;;;;;;;55.92;35.30;;;;;;;5.53;100.00;100036.19;2053011;28;20233;-76
2022/04/29 03:33:56;;;;;;;48.15;34.92;;;;;;;5.54;100.00;100031.69;2052319;28;20197;-75
2022/04/29 03:34:57;;;;;;;56.45;35.45;;;;;;;5.56;100.00;100035.72;2050327;28;20206;-75
2022/04/29 03:36:00;;;;;;;50.20;36.55;;;;;;;5.59;100.00;100034.44;2057746;28;20213;-75
2022/04/29 03:37:09;;;;;;;54.15;36.60;;;;;;;5.61;100.00;100030.50;2058613;28;20209;-73
2022/04/29 03:38:10;;;;;;;48.22;35.50;;;;;;;5.59;100.00;100029.94;2058387;28;20194;-75
2022/04/29 03:39:12;;;;;;;47.15;34.88;;;;;;;5.61;100.00;100033.16;2058937;28;20206;-75
2022/04/29 03:40:13;;;;;;;49.00;36.72;;;;;;;5.62;100.00;100040.06;2058263;28;20342;-76
2022/04/29 03:41:15;;;;;;;50.67;35.42;;;;;;;5.64;100.00;100037.16;2058359;28;20202;-75
2022/04/29 03:42:16;;;;;;;49.78;34.42;;;;;;;5.64;100.00;100035.31;2058219;28;20259;-75
2022/04/29 03:43:22;;;;;;;50.33;35.70;;;;;;;5.64;100.00;100037.97;2058275;28;20189;-75
2022/04/29 03:44:26;;;;;;;56.58;35.40;;;;;;;5.66;100.00;100035.09;2058275;28;20489;-75
2022/04/29 03:45:27;;;;;;;51.28;36.00;;;;;;;5.68;100.00;100035.66;2057932;28;20212;-75
2022/04/29 03:46:29;;;;;;;56.97;36.38;;;;;;;5.71;100.00;100043.09;2058200;28;20197;-75
2022/04/29 03:47:50;;;;;;;46.92;35.25;;;;;;;5.73;100.00;100040.22;2060776;28;20252;-75
2022/04/29 03:50:32;;;;;;;53.33;36.08;;;;;;;5.77;100.00;100041.34;2061355;28;20204;-75
2022/04/29 03:51:41;;;;;;;50.83;35.85;;;;;;;5.73;100.00;100032.28;2057926;28;20236;-75
2022/04/29 03:52:47;;;;;;;53.95;36.05;;;;;;;5.81;100.00;100042.47;2050393;28;20285;-75
2022/04/29 03:53:48;;;;;;;50.05;36.88;;;;;;;5.81;100.00;100045.91;2050733;28;20293;-75
2022/04/29 03:54:50;;;;;;;47.67;34.83;;;;;;;5.83;100.00;100038.56;2058162;28;20205;-75
2022/04/29 03:55:51;;;;;;;54.47;37.38;;;;;;;5.85;100.00;100038.31;2058051;28;20305;-75
2022/04/29 03:56:57;;;;;;;54.70;36.07;;;;;;;5.85;100.00;100043.59;2050160;29;20205;-75
2022/04/29 03:58:02;;;;;;;52.20;34.45;;;;;;;5.86;100.00;100046.00;2050842;28;20641;-75
2022/04/29 03:59:06;;;;;;;52.63;36.65;;;;;;;5.87;100.00;100044.97;2050810;28;20297;-75
2022/04/29 04:00:10;;;;;;;53.58;36.08;;;;;;;5.89;100.00;100042.06;2058271;28;20263;-75
2022/04/29 04:01:17;;;;;;;51.10;34.80;;;;;;;5.90;100.00;100048.97;2058944;28;20641;-75
2022/04/29 04:02:28;;;;;;;50.85;36.38;;;;;;;5.91;100.00;100048.78;2058110;28;20280;-75
2022/04/29 04:03:30;;;;;;;52.50;35.40;;;;;;;5.91;100.00;100045.34;2050164;28;20699;-75
2022/04/29 04:04:42;;;;;;;54.70;35.42;;;;;;;5.88;100.00;100048.41;2059531;28;20288;-75
2022/04/29 04:06:49;;;;;;;51.63;36.97;;;;;;;5.92;100.00;100052.22;2058095;28;20233;-75
2022/04/29 04:07:05;;;;;;;51.80;35.80;;;;;;;5.93;100.00;100048.53;2052493;28;20260;-75
2022/04/29 04:08:34;;;;;;;45.33;33.97;;;;;;;5.90;100.00;100046.31;2053754;28;20281;-75
2022/04/29 04:09:35;;;;;;;53.50;35.17;;;;;;;5.92;100.00;100046.94;2058159;28;20248;-75
2022/04/29 04:10:41;;;;;;;50.72;34.88;;;;;;;5.92;100.00;100047.75;2066057;28;20204;-75
2022/04/29 04:11:43;;;;;;;55.50;35.67;;;;;;;5.92;100.00;100053.03;2058034;28;20198;-73
2022/04/29 04:12:49;;;;;;;54.33;34.63;;;;;;;5.93;100.00;100052.00;2050307;28;20684;-74
2022/04/29 04:14:31;;;;;;;49.97;34.20;;;;;;;5.93;100.00;100052.00;2034278;28;20208;-74
2022/04/29 04:15:33;;;;;;;51.50;36.35;;;;;;;5.93;100.00;100054.63;2058645;28;20585;-74
2022/04/29 04:16:34;;;;;;;49.40;35.33;;;;;;;5.97;100.00;100054.94;2057964;28;20205;-74
2022/04/29 04:17:36;;;;;;;49.70;35.15;;;;;;;5.97;100.00;100052.28;2050039;28;20677;-75
2022/04/29 04:18:37;;;;;;;50.50;36.20;;;;;;;5.97;100.00;100052.28;2058107;28;20190;-74
2022/04/29 04:19:40;;;;;;;61.67;36.70;;;;;;;5.97;100.00;100054.94;2058032;28;20206;-75
2022/04/29 04:20:41;;;;;;;50.97;34.95;;;;;;;5.97;100.00;100057.59;2050204;28;20201;-74
2022/04/29 04:21:43;;;;;;;52.50;36.13;;;;;;;6.02;100.00;100057.69;2049533;28;20635;-74
2022/04/29 04:22:45;;;;;;;59.03;35.90;;;;;;;6.01;100.00;100050.78;2050147;28;20233;-74
2022/04/29 04:23:47;;;;;;;47.57;34.63;;;;;;;6.00;100.00;100054.47;2049952;29;20257;-74
2022/04/29 04:24:48;;;;;;;50.25;35.15;;;;;;;5.98;100.00;100048.59;2049959;28;20209;-74
2022/04/29 04:25:50;;;;;;;53.90;34.57;;;;;;;5.98;100.00;100064.50;2049905;28;20225;-74
2022/04/29 04:26:56;;;;;;;46.15;35.13;;;;;;;5.97;100.00;100065.53;2050346;28;20207;-74
2022/04/29 04:28:01;;;;;;;45.17;34.53;;;;;;;5.97;100.00;100059.44;2058062;28;20256;-74
2022/04/29 04:29:19;;;;;;;50.03;35.40;;;;;;;5.96;100.00;100061.28;2057929;28;20194;-74
2022/04/29 04:30:23;;;;;;;48.80;34.92;;;;;;;5.95;100.00;100057.03;2050408;28;20206;-74
2022/04/29 04:31:25;;;;;;;51.78;35.45;;;;;;;5.94;100.00;100056.25;2049822;28;20218;-75
2022/04/29 04:32:32;;;;;;;55.95;36.10;;;;;;;5.94;100.00;100061.53;2050429;28;20629;-74
2022/04/29 04:33:38;;;;;;;49.50;35.33;;;;;;;5.99;100.00;100073.25;2050900;28;20281;-74
2022/04/29 04:34:51;;;;;;;52.47;34.25;;;;;;;5.95;100.00;100065.78;2057748;28;20206;-75
2022/04/29 04:35:53;;;;;;;53.53;35.65;;;;;;;5.97;100.00;100068.19;2065277;28;20189;-73
2022/04/29 04:36:54;;;;;;;49.20;35.20;;;;;;;5.98;100.00;100069.78;2065849;28;20605;-74
2022/04/29 04:37:57;;;;;;;53.08;34.70;;;;;;;6.00;100.00;100072.22;2050143;28;20194;-74
2022/04/29 04:39:17;;;;;;;51.85;34.70;;;;;;;6.01;100.00;100074.63;2059600;28;20775;-74
2022/04/29 04:40:20;;;;;;;49.60;35.92;;;;;;;6.03;100.00;100069.09;2057872;28;20233;-74
2022/04/29 04:41:25;;;;;;;54.90;36.53;;;;;;;6.04;100.00;100065.38;2050321;28;20289;-74
2022/04/29 04:42:28;;;;;;;55.25;37.35;;;;;;;6.03;100.00;100067.22;2057886;28;20201;-74
2022/04/29 04:43:33;;;;;;;52.75;37.00;;;;;;;6.09;100.00;100073.44;2057897;28;20194;-74
2022/04/29 04:44:38;;;;;;;52.38;38.33;;;;;;;6.10;100.00;100075.03;2050258;28;20198;-74
2022/04/29 04:45:42;;;;;;;58.03;37.40;;;;;;;6.08;100.00;100074.44;2049289;28;20231;-74
2022/04/29 04:47:02;;;;;;;52.60;36.42;;;;;;;6.07;100.00;100078.13;2058331;28;20641;-74
2022/04/29 04:48:24;;;;;;;54.63;36.47;;;;;;;6.08;100.00;100074.44;2058823;28;20553;-74
2022/04/29 04:49:44;;;;;;;49.95;36.45;;;;;;;6.12;100.00;100079.03;2058578;28;20174;-74
2022/04/29 04:50:53;;;;;;;50.42;36.33;;;;;;;6.13;100.00;100077.97;2058149;28;20194;-74
2022/04/29 04:51:54;;;;;;;55.25;36.60;;;;;;;6.19;100.00;100082.31;2057636;28;20695;-74
2022/04/29 04:52:56;;;;;;;53.70;35.77;;;;;;;6.18;100.00;100079.94;2065845;28;20623;-74
2022/04/29 04:53:57;;;;;;;50.50;35.47;;;;;;;6.21;100.00;100080.22;2049882;28;20309;-74
2022/04/29 04:55:06;;;;;;;54.38;36.50;;;;;;;6.22;100.00;100081.03;2057701;28;20621;-74